createdAt,value
2018-03-15T00:03:39.875Z,16.20
2018-03-15T00:06:07.184Z,14.67
2018-03-15T00:08:35.277Z,13.90
2018-03-15T00:13:34.953Z,14.40
2018-03-15T00:16:02.197Z,16.40
2018-03-15T00:18:30.619Z,13.70
2018-03-15T00:20:58.589Z,18.63
2018-03-15T00:23:26.113Z,16.20
2018-03-15T00:25:53.351Z,14.40
2018-03-15T00:28:20.603Z,14.03
2018-03-15T00:30:47.917Z,15.93
2018-03-15T00:33:15.683Z,15.97
2018-03-15T00:35:42.918Z,21.20
2018-03-15T00:38:10.191Z,12.50
2018-03-15T00:40:37.419Z,14.53
2018-03-15T00:43:05.200Z,14.37
2018-03-15T00:45:32.448Z,15.40
2018-03-15T00:47:59.688Z,12.90
2018-03-15T00:50:28.186Z,17.87
2018-03-15T00:52:55.407Z,13.73
2018-03-15T00:55:24.663Z,17.00
2018-03-15T00:57:54.863Z,14.30
2018-03-15T01:00:22.189Z,12.70
2018-03-15T01:05:26.034Z,14.53
2018-03-15T01:10:27.020Z,20.43
2018-03-15T01:12:56.886Z,18.60
2018-03-15T01:15:24.125Z,44.13
2018-03-15T01:17:52.083Z,31.30
2018-03-15T01:20:19.922Z,24.53
2018-03-15T01:22:47.221Z,36.47
2018-03-15T01:25:14.495Z,22.40
2018-03-15T01:27:43.103Z,26.90
2018-03-15T01:30:16.356Z,30.83
2018-03-15T01:32:43.601Z,28.50
2018-03-15T01:35:12.583Z,24.03
2018-03-15T01:37:40.563Z,17.90
2018-03-15T01:40:13.240Z,14.33
2018-03-15T01:42:40.500Z,13.07
2018-03-15T01:45:10.413Z,14.30
2018-03-15T01:47:38.502Z,13.30
2018-03-15T01:50:07.901Z,18.27
2018-03-15T01:52:35.257Z,14.13
2018-03-15T01:55:03.978Z,12.63
2018-03-15T01:57:35.840Z,13.00
2018-03-15T02:00:03.805Z,12.73
2018-03-15T02:02:37.914Z,30.70
2018-03-15T02:05:07.936Z,21.80
2018-03-15T02:07:42.330Z,24.93
2018-03-15T02:10:13.728Z,39.20
2018-03-15T02:12:41.182Z,71.17
2018-03-15T02:15:12.499Z,27.27
2018-03-15T02:17:40.449Z,23.80
2018-03-15T02:20:14.128Z,21.53
2018-03-15T02:22:41.958Z,37.37
2018-03-15T02:25:11.420Z,47.90
2018-03-15T02:30:14.604Z,18.50
2018-03-15T02:35:15.906Z,17.40
2018-03-15T02:37:44.926Z,15.90
2018-03-15T02:40:18.635Z,17.53
2018-03-15T02:42:46.196Z,16.87
2018-03-15T02:45:19.651Z,12.03
2018-03-15T02:47:48.280Z,18.83
2018-03-15T02:50:17.671Z,17.10
2018-03-15T02:52:45.582Z,16.40
2018-03-15T02:55:12.883Z,21.50
2018-03-15T02:57:41.198Z,16.47
2018-03-15T03:00:16.074Z,15.90
2018-03-15T03:02:45.204Z,15.73
2018-03-15T03:05:16.134Z,16.73
2018-03-15T03:07:45.104Z,13.97
2018-03-15T03:10:12.929Z,14.30
2018-03-15T03:12:42.282Z,14.90
2018-03-15T03:15:16.161Z,15.53
2018-03-15T03:17:44.920Z,17.43
2018-03-15T03:20:16.757Z,15.70
2018-03-15T03:22:44.039Z,14.40
2018-03-15T03:25:15.680Z,15.50
2018-03-15T03:27:42.956Z,15.17
2018-03-15T03:30:10.457Z,14.17
2018-03-15T03:32:38.361Z,16.20
2018-03-15T03:35:06.745Z,15.07
2018-03-15T03:37:35.456Z,17.77
2018-03-15T03:40:02.729Z,16.93
2018-03-15T03:42:30.803Z,19.10
2018-03-15T03:44:58.902Z,21.00
2018-03-15T03:47:26.125Z,23.43
2018-03-15T03:49:53.381Z,23.90
2018-03-15T03:52:21.322Z,19.30
2018-03-15T03:54:48.577Z,18.93
2018-03-15T03:57:15.821Z,17.57
2018-03-15T03:59:43.614Z,19.90
2018-03-15T04:02:11.765Z,21.30
2018-03-15T04:04:38.999Z,24.23
2018-03-15T04:07:06.475Z,22.07
2018-03-15T04:09:33.950Z,21.93
2018-03-15T04:12:02.157Z,17.63
2018-03-15T04:14:29.385Z,20.33
2018-03-15T04:16:58.877Z,20.77
2018-03-15T04:19:29.839Z,19.30
2018-03-15T04:21:56.850Z,21.90
2018-03-15T04:24:27.666Z,18.77
2018-03-15T04:26:55.905Z,20.87
2018-03-15T04:29:23.130Z,19.33
2018-03-15T04:31:50.419Z,19.90
2018-03-15T04:34:17.650Z,17.33
2018-03-15T04:36:45.555Z,34.83
2018-03-15T04:39:18.625Z,18.80
2018-03-15T04:41:47.457Z,19.10
2018-03-15T04:44:15.936Z,30.27
2018-03-15T04:46:44.468Z,30.57
2018-03-15T04:49:14.565Z,21.30
2018-03-15T04:51:42.553Z,25.53
2018-03-15T04:54:11.134Z,57.83
2018-03-15T04:56:38.407Z,44.20
2018-03-15T04:59:07.140Z,35.33
2018-03-15T05:01:34.742Z,35.97
2018-03-15T05:04:02.001Z,33.77
2018-03-15T05:06:30.728Z,30.47
2018-03-15T05:08:59.728Z,26.17
2018-03-15T05:11:27.822Z,37.60
2018-03-15T05:13:55.926Z,34.90
2018-03-15T05:16:23.894Z,33.67
2018-03-15T05:18:52.257Z,29.20
2018-03-15T05:21:19.903Z,40.67
2018-03-15T05:23:49.491Z,29.63
2018-03-15T05:28:53.886Z,36.07
2018-03-15T05:31:21.705Z,74.63
2018-03-15T05:33:49.940Z,37.97
2018-03-15T05:36:17.729Z,35.53
2018-03-15T05:38:45.476Z,41.23
2018-03-15T05:41:14.149Z,39.90
2018-03-15T05:46:18.189Z,36.83
2018-03-15T05:48:47.721Z,33.40
2018-03-15T05:51:17.297Z,43.03
2018-03-15T05:53:46.494Z,39.60
2018-03-15T05:56:15.251Z,28.83
2018-03-15T05:58:43.096Z,25.83
2018-03-15T06:01:10.370Z,32.33
2018-03-15T06:03:38.098Z,25.17
2018-03-15T06:06:05.941Z,35.73
2018-03-15T06:08:33.189Z,48.43
2018-03-15T06:11:00.551Z,43.70
2018-03-15T06:13:27.791Z,37.77
2018-03-15T06:15:55.038Z,43.73
2018-03-15T06:18:23.037Z,46.80
2018-03-15T06:20:51.628Z,33.13
2018-03-15T06:23:18.923Z,34.50
2018-03-15T06:25:46.182Z,37.13
2018-03-15T06:28:13.408Z,28.87
2018-03-15T06:30:40.625Z,45.70
2018-03-15T06:33:07.898Z,43.43
2018-03-15T06:35:35.130Z,39.10
2018-03-15T06:38:02.369Z,39.77
2018-03-15T06:40:29.602Z,43.27
2018-03-15T06:42:56.821Z,51.17
2018-03-15T06:45:24.045Z,47.20
2018-03-15T06:47:51.312Z,35.10
2018-03-15T06:50:18.544Z,42.47
2018-03-15T06:52:45.769Z,56.33
2018-03-15T06:55:16.202Z,48.40
2018-03-15T06:57:43.423Z,36.70
2018-03-15T07:00:16.014Z,32.37
2018-03-15T07:02:44.154Z,28.30
2018-03-15T07:05:14.549Z,41.93
2018-03-15T07:07:41.807Z,30.23
2018-03-15T07:10:12.360Z,29.63
2018-03-15T07:12:39.604Z,31.70
2018-03-15T07:15:07.978Z,32.33
2018-03-15T07:17:35.216Z,28.40
2018-03-15T07:20:02.445Z,25.30
2018-03-15T07:22:31.082Z,30.43
2018-03-15T07:24:58.342Z,27.33
2018-03-15T07:27:27.163Z,31.50
2018-03-15T07:29:54.407Z,31.47
2018-03-15T07:32:21.644Z,28.33
2018-03-15T07:34:48.883Z,31.80
2018-03-15T07:37:16.125Z,28.63
2018-03-15T07:39:43.362Z,36.53
2018-03-15T07:42:10.609Z,33.73
2018-03-15T07:44:37.862Z,31.97
2018-03-15T07:47:05.241Z,27.50
2018-03-15T07:49:32.527Z,23.97
2018-03-15T07:51:59.756Z,24.10
2018-03-15T07:54:27.018Z,23.13
2018-03-15T07:56:54.573Z,20.03
2018-03-15T07:59:21.813Z,20.53
2018-03-15T08:01:49.079Z,29.63
2018-03-15T08:04:16.383Z,20.90
2018-03-15T08:06:43.793Z,22.40
2018-03-15T08:09:11.029Z,22.07
2018-03-15T08:11:38.254Z,21.53
2018-03-15T08:14:05.489Z,26.50
2018-03-15T08:16:32.705Z,23.57
2018-03-15T08:18:59.956Z,21.50
2018-03-15T08:21:27.182Z,23.00
2018-03-15T08:23:54.434Z,22.80
2018-03-15T08:26:21.693Z,17.93
2018-03-15T08:28:48.958Z,24.90
2018-03-15T08:31:16.385Z,23.37
2018-03-15T08:33:43.626Z,21.53
2018-03-15T08:36:10.681Z,22.83
2018-03-15T08:38:37.949Z,25.97
2018-03-15T08:41:05.185Z,20.63
2018-03-15T08:43:32.454Z,21.83
2018-03-15T08:45:59.704Z,20.10
2018-03-15T08:48:26.933Z,21.70
2018-03-15T08:50:54.197Z,24.33
2018-03-15T08:53:21.429Z,21.23
2018-03-15T08:55:48.657Z,19.90
2018-03-15T08:58:15.932Z,24.77
2018-03-15T09:00:43.201Z,25.40
2018-03-15T09:03:11.601Z,19.20
2018-03-15T09:05:38.832Z,14.03
2018-03-15T09:08:06.065Z,20.97
2018-03-15T09:10:33.312Z,20.50
2018-03-15T09:13:00.545Z,21.03
2018-03-15T09:15:27.767Z,19.63
2018-03-15T09:17:55.650Z,16.60
2018-03-15T09:20:22.889Z,24.23
2018-03-15T09:22:50.138Z,21.80
2018-03-15T09:25:17.376Z,18.47
2018-03-15T09:27:44.660Z,21.77
2018-03-15T09:30:11.908Z,21.80
2018-03-15T09:32:39.330Z,19.47
2018-03-15T09:35:06.949Z,19.73
2018-03-15T09:37:34.253Z,21.20
2018-03-15T09:40:01.710Z,24.23
2018-03-15T09:42:29.156Z,24.23
2018-03-15T09:44:56.605Z,21.47
2018-03-15T09:47:24.073Z,32.13
2018-03-15T09:49:51.513Z,22.17
2018-03-15T09:52:19.005Z,25.70
2018-03-15T09:54:47.234Z,33.60
2018-03-15T09:57:14.494Z,26.70
2018-03-15T09:59:41.917Z,27.80
2018-03-15T10:02:09.350Z,27.87
2018-03-15T10:04:36.790Z,23.80
2018-03-15T10:07:04.242Z,25.67
2018-03-15T10:09:31.541Z,32.00
2018-03-15T10:11:58.963Z,28.33
2018-03-15T10:14:26.205Z,27.27
2018-03-15T10:16:53.605Z,24.63
2018-03-15T10:19:21.042Z,29.83
2018-03-15T10:21:48.543Z,23.40
2018-03-15T10:24:15.919Z,28.03
2018-03-15T10:26:43.347Z,28.30
2018-03-15T10:29:10.821Z,24.10
2018-03-15T10:31:38.299Z,27.20
2018-03-15T10:34:05.723Z,24.97
2018-03-15T10:36:33.192Z,23.73
2018-03-15T10:39:00.650Z,28.50
2018-03-15T10:41:28.070Z,28.63
2018-03-15T10:43:55.501Z,46.37
2018-03-15T10:46:23.478Z,22.67
2018-03-15T10:48:50.848Z,22.83
2018-03-15T10:51:18.514Z,25.03
2018-03-15T10:53:45.928Z,27.60
2018-03-15T10:56:13.395Z,28.07
2018-03-15T10:58:40.696Z,27.80
2018-03-15T11:01:07.934Z,24.83
2018-03-15T11:03:40.980Z,21.93
2018-03-15T11:06:10.000Z,23.27
2018-03-15T11:08:37.098Z,26.20
2018-03-15T11:11:04.201Z,22.10
2018-03-15T11:13:31.664Z,18.40
2018-03-15T11:15:59.063Z,21.63
2018-03-15T11:18:26.525Z,19.90
2018-03-15T11:20:53.922Z,22.60
2018-03-15T11:23:21.340Z,19.27
2018-03-15T11:25:48.981Z,19.07
2018-03-15T11:28:16.229Z,23.93
2018-03-15T11:30:43.650Z,16.50
2018-03-15T11:33:10.882Z,15.80
2018-03-15T11:35:38.139Z,18.13
2018-03-15T11:38:05.377Z,17.93
2018-03-15T11:40:32.822Z,23.40
2018-03-15T11:43:00.249Z,26.93
2018-03-15T11:45:27.706Z,20.90
2018-03-15T11:47:55.241Z,21.67
2018-03-15T11:50:22.678Z,24.50
2018-03-15T11:52:49.930Z,24.07
2018-03-15T11:55:18.201Z,23.97
2018-03-15T11:57:45.651Z,18.20
2018-03-15T12:00:12.925Z,24.37
2018-03-15T12:02:40.337Z,27.07
2018-03-15T12:05:07.785Z,26.17
2018-03-15T12:07:35.271Z,23.10
2018-03-15T12:10:02.686Z,26.27
2018-03-15T12:12:30.109Z,28.93
2018-03-15T12:14:57.537Z,24.97
2018-03-15T12:17:24.969Z,24.87
2018-03-15T12:19:52.192Z,24.57
2018-03-15T12:22:19.977Z,25.73
2018-03-15T12:24:47.218Z,31.80
2018-03-15T12:27:14.456Z,30.20
2018-03-15T12:29:41.682Z,26.07
2018-03-15T12:32:08.981Z,30.23
2018-03-15T12:34:36.390Z,28.83
2018-03-15T12:37:03.612Z,26.97
2018-03-15T12:39:30.850Z,29.40
2018-03-15T12:41:58.096Z,30.80
2018-03-15T12:44:25.365Z,32.63
2018-03-15T12:46:52.588Z,27.60
2018-03-15T12:49:19.813Z,26.37
2018-03-15T12:51:47.762Z,30.77
2018-03-15T12:54:15.010Z,31.70
2018-03-15T12:56:42.056Z,25.53
2018-03-15T12:59:09.289Z,37.53
2018-03-15T13:01:36.533Z,25.97
2018-03-15T13:04:03.761Z,28.00
2018-03-15T13:06:30.987Z,26.47
2018-03-15T13:08:58.125Z,31.10
2018-03-15T13:11:26.620Z,30.73
2018-03-15T13:13:53.854Z,28.53
2018-03-15T13:16:21.105Z,28.83
2018-03-15T13:18:48.342Z,25.70
2018-03-15T13:21:15.774Z,29.63
2018-03-15T13:23:43.032Z,27.00
2018-03-15T13:26:16.242Z,32.90
2018-03-15T13:28:44.552Z,28.90
2018-03-15T13:33:52.962Z,28.67
2018-03-15T13:36:20.184Z,34.50
2018-03-15T13:38:47.429Z,40.27
2018-03-15T13:41:14.695Z,37.60
2018-03-15T13:43:41.936Z,34.70
2018-03-15T13:46:09.176Z,33.53
2018-03-15T13:48:37.154Z,29.33
2018-03-15T13:51:04.410Z,37.87
2018-03-15T13:53:31.654Z,30.40
2018-03-15T13:55:58.888Z,33.27
2018-03-15T13:58:26.173Z,28.50
2018-03-15T14:00:53.591Z,35.10
2018-03-15T14:03:20.842Z,30.23
2018-03-15T14:05:48.181Z,29.73
2018-03-15T14:08:15.409Z,36.07
2018-03-15T14:10:42.675Z,31.63
2018-03-15T14:13:10.608Z,31.17
2018-03-15T14:15:37.880Z,29.87
2018-03-15T14:18:05.122Z,28.40
2018-03-15T14:20:32.895Z,30.70
2018-03-15T14:23:00.122Z,27.00
2018-03-15T14:25:27.371Z,31.50
2018-03-15T14:27:54.601Z,30.77
2018-03-15T14:30:21.854Z,29.97
2018-03-15T14:32:49.126Z,44.07
2018-03-15T14:35:16.356Z,35.23
2018-03-15T14:37:43.631Z,26.73
2018-03-15T14:40:10.861Z,29.33
2018-03-15T14:42:38.085Z,27.07
2018-03-15T14:45:05.313Z,24.90
2018-03-15T14:47:32.709Z,29.40
2018-03-15T14:49:59.943Z,26.23
2018-03-15T14:52:27.173Z,24.87
2018-03-15T14:54:54.425Z,29.70
2018-03-15T14:57:21.661Z,28.10
2018-03-15T14:59:48.914Z,30.00
2018-03-15T15:02:16.168Z,25.33
2018-03-15T15:04:43.404Z,26.23
2018-03-15T15:07:10.637Z,21.50
2018-03-15T15:09:37.858Z,25.33
2018-03-15T15:12:05.084Z,23.20
2018-03-15T15:14:32.372Z,30.63
2018-03-15T15:16:59.595Z,22.77
2018-03-15T15:19:26.507Z,24.43
2018-03-15T15:21:53.777Z,21.63
2018-03-15T15:24:21.011Z,23.30
2018-03-15T15:26:48.308Z,19.90
2018-03-15T15:29:15.590Z,26.13
2018-03-15T15:31:42.834Z,25.67
2018-03-15T15:34:10.067Z,23.17
2018-03-15T15:36:37.294Z,21.37
2018-03-15T15:39:04.034Z,22.60
2018-03-15T15:41:31.265Z,26.57
2018-03-15T15:43:58.520Z,24.00
2018-03-15T15:46:25.773Z,22.33
2018-03-15T15:48:53.025Z,22.63
2018-03-15T15:51:20.277Z,25.50
2018-03-15T15:53:48.522Z,23.43
2018-03-15T15:56:16.296Z,22.80
2018-03-15T15:58:43.533Z,20.37
2018-03-15T16:01:11.031Z,28.57
2018-03-15T16:03:38.897Z,21.80
2018-03-15T16:06:07.317Z,19.73
2018-03-15T16:08:34.722Z,24.07
2018-03-15T16:11:02.024Z,34.37
2018-03-15T16:13:29.672Z,25.00
2018-03-15T16:15:57.305Z,28.37
2018-03-15T16:18:24.552Z,25.40
2018-03-15T16:20:51.786Z,25.77
2018-03-15T16:23:19.053Z,24.20
2018-03-15T16:25:47.111Z,30.10
2018-03-15T16:30:47.520Z,27.90
2018-03-15T16:33:15.424Z,29.43
2018-03-15T16:35:42.700Z,26.13
2018-03-15T16:38:10.460Z,24.63
2018-03-15T16:40:38.968Z,25.00
2018-03-15T16:43:06.242Z,28.23
2018-03-15T16:45:34.125Z,27.63
2018-03-15T16:48:01.376Z,27.63
2018-03-15T16:50:28.272Z,27.77
2018-03-15T16:52:56.416Z,31.17
2018-03-15T16:55:23.672Z,28.90
2018-03-15T16:57:50.938Z,31.83
2018-03-15T17:00:18.180Z,25.83
2018-03-15T17:02:45.464Z,35.43
2018-03-15T17:05:12.792Z,32.73
2018-03-15T17:07:40.037Z,31.97
2018-03-15T17:10:07.285Z,33.30
2018-03-15T17:12:34.560Z,33.43
2018-03-15T17:15:01.649Z,34.97
2018-03-15T17:17:29.118Z,41.10
2018-03-15T17:19:56.357Z,33.37
2018-03-15T17:22:24.671Z,35.20
2018-03-15T17:24:51.936Z,38.20
2018-03-15T17:27:19.331Z,37.60
2018-03-15T17:29:46.797Z,36.00
2018-03-15T17:32:14.027Z,39.97
2018-03-15T17:34:41.265Z,39.97
2018-03-15T17:37:08.505Z,34.40
2018-03-15T17:39:36.013Z,40.53
2018-03-15T17:42:03.250Z,40.57
2018-03-15T17:44:30.473Z,42.13
2018-03-15T17:46:57.757Z,35.10
2018-03-15T17:49:25.006Z,36.87
2018-03-15T17:51:52.293Z,41.43
2018-03-15T17:54:19.545Z,40.53
2018-03-15T17:56:47.039Z,42.23
2018-03-15T17:59:14.257Z,35.77
2018-03-15T18:01:41.517Z,43.73
2018-03-15T18:04:08.790Z,39.80
2018-03-15T18:06:36.049Z,37.00
2018-03-15T18:09:02.968Z,40.80
2018-03-15T18:11:30.210Z,39.93
2018-03-15T18:13:57.468Z,33.50
2018-03-15T18:16:24.705Z,35.30
2018-03-15T18:18:51.957Z,39.53
2018-03-15T18:21:19.229Z,36.43
2018-03-15T18:23:46.597Z,35.73
2018-03-15T18:26:13.825Z,32.67
2018-03-15T18:28:41.073Z,32.83
2018-03-15T18:31:08.310Z,39.30
2018-03-15T18:33:35.554Z,35.57
2018-03-15T18:36:02.796Z,32.00
2018-03-15T18:38:30.035Z,29.37
2018-03-15T18:40:57.571Z,37.00
2018-03-15T18:43:24.841Z,34.73
2018-03-15T18:45:52.090Z,28.67
2018-03-15T18:48:19.570Z,32.03
2018-03-15T18:50:46.862Z,34.13
2018-03-15T18:53:14.082Z,28.80
2018-03-15T18:55:43.064Z,29.77
2018-03-15T18:58:10.339Z,29.73
2018-03-15T19:00:37.581Z,29.33
2018-03-15T19:03:04.802Z,37.63
2018-03-15T19:05:32.055Z,31.70
2018-03-15T19:07:59.949Z,32.33
2018-03-15T19:10:27.185Z,31.77
2018-03-15T19:12:54.413Z,31.47
2018-03-15T19:15:22.034Z,30.80
2018-03-15T19:17:49.267Z,33.77
2018-03-15T19:20:16.497Z,29.40
2018-03-15T19:22:43.741Z,30.73
2018-03-15T19:25:10.986Z,32.30
2018-03-15T19:27:38.229Z,27.97
2018-03-15T19:30:05.685Z,33.40
2018-03-15T19:32:33.381Z,34.53
2018-03-15T19:35:03.630Z,32.03
2018-03-15T19:37:30.989Z,34.93
2018-03-15T19:39:57.892Z,29.23
2018-03-15T19:42:25.120Z,32.03
2018-03-15T19:44:52.389Z,44.60
2018-03-15T19:47:19.619Z,33.73
2018-03-15T19:49:46.851Z,38.10
2018-03-15T19:52:14.080Z,35.80
2018-03-15T19:54:41.335Z,28.50
2018-03-15T19:57:08.896Z,33.90
2018-03-15T19:59:36.141Z,32.93
2018-03-15T20:02:03.314Z,34.40
2018-03-15T20:04:30.714Z,34.23
2018-03-15T20:06:57.924Z,33.33
2018-03-15T20:09:24.961Z,33.90
2018-03-15T20:11:52.210Z,33.73
2018-03-15T20:14:19.425Z,37.97
2018-03-15T20:16:46.640Z,28.43
2018-03-15T20:19:19.489Z,36.47
2018-03-15T20:21:47.774Z,38.17
2018-03-15T20:24:20.617Z,35.13
2018-03-15T20:26:47.833Z,44.17
2018-03-15T20:29:15.052Z,38.27
2018-03-15T20:31:42.269Z,35.80
2018-03-15T20:34:11.999Z,33.33
2018-03-15T20:36:39.024Z,37.93
2018-03-15T20:39:11.561Z,39.70
2018-03-15T20:41:39.753Z,35.30
2018-03-15T20:44:07.026Z,34.37
2018-03-15T20:46:39.853Z,37.70
2018-03-15T20:49:15.434Z,34.13
2018-03-15T20:51:42.968Z,42.70
2018-03-15T20:54:10.195Z,37.83
2018-03-15T20:56:37.403Z,44.93
2018-03-15T20:59:05.039Z,36.03
2018-03-15T21:01:32.281Z,39.93
2018-03-15T21:03:59.508Z,37.40
2018-03-15T21:06:26.713Z,32.80
2018-03-15T21:08:53.954Z,37.73
2018-03-15T21:11:21.174Z,32.13
2018-03-15T21:13:48.921Z,38.07
2018-03-15T21:16:18.959Z,36.13
2018-03-15T21:18:46.208Z,38.73
2018-03-15T21:21:13.431Z,35.50
2018-03-15T21:23:41.492Z,32.93
2018-03-15T21:26:08.712Z,39.23
2018-03-15T21:28:35.933Z,30.33
2018-03-15T21:31:03.166Z,34.93
2018-03-15T21:33:30.431Z,37.30
2018-03-15T21:35:57.922Z,32.73
2018-03-15T21:38:25.127Z,36.87
2018-03-15T21:40:52.345Z,30.63
2018-03-15T21:43:19.565Z,32.00
2018-03-15T21:45:46.784Z,33.77
2018-03-15T21:48:14.000Z,34.50
2018-03-15T21:50:41.557Z,28.33
2018-03-15T21:53:09.727Z,31.80
2018-03-15T21:55:36.951Z,30.53
2018-03-15T21:58:04.177Z,31.53
2018-03-15T22:00:31.389Z,31.10
2018-03-15T22:02:58.616Z,29.53
2018-03-15T22:05:25.915Z,35.37
2018-03-15T22:07:53.130Z,25.70
2018-03-15T22:10:20.340Z,35.23
2018-03-15T22:12:47.590Z,29.03
2018-03-15T22:15:17.226Z,26.27
2018-03-15T22:17:44.453Z,25.53
2018-03-15T22:20:11.686Z,27.67
2018-03-15T22:22:38.898Z,23.40
2018-03-15T22:25:11.318Z,26.50
2018-03-15T22:27:38.633Z,26.37
2018-03-15T22:30:07.194Z,26.83
2018-03-15T22:32:34.414Z,27.93
2018-03-15T22:35:01.629Z,25.87
2018-03-15T22:37:28.846Z,23.83
2018-03-15T22:39:56.719Z,21.50
2018-03-15T22:42:24.844Z,20.50
2018-03-15T22:44:52.053Z,17.57
2018-03-15T22:47:19.923Z,22.43
2018-03-15T22:49:47.137Z,13.50
2018-03-15T22:52:14.370Z,21.33
2018-03-15T22:54:41.584Z,16.57
2018-03-15T22:57:08.795Z,17.80
2018-03-15T22:59:36.017Z,19.97
2018-03-15T23:02:06.067Z,16.53
2018-03-15T23:04:33.289Z,15.67
2018-03-15T23:07:00.542Z,23.03
2018-03-15T23:09:27.765Z,13.30
2018-03-15T23:11:54.792Z,16.20
2018-03-15T23:14:22.000Z,14.67
2018-03-15T23:16:49.244Z,17.80
2018-03-15T23:19:16.456Z,11.67
2018-03-15T23:21:43.664Z,19.07
2018-03-15T23:24:10.892Z,12.43
2018-03-15T23:26:38.102Z,13.37
2018-03-15T23:29:05.310Z,11.13
2018-03-15T23:31:32.542Z,6.47
2018-03-15T23:33:59.762Z,6.63
2018-03-15T23:36:26.984Z,11.40
2018-03-15T23:38:54.194Z,8.00
2018-03-15T23:41:21.397Z,6.27
2018-03-15T23:43:48.607Z,6.20
2018-03-15T23:46:15.812Z,6.17
2018-03-15T23:48:43.016Z,5.93
2018-03-15T23:51:10.428Z,3.80
2018-03-15T23:53:37.649Z,4.90
2018-03-15T23:56:04.860Z,2.43
2018-03-15T23:58:32.063Z,4.07
